createdAt,value
2018-03-08T00:00:55.867Z,6.25
2018-03-08T00:01:55.824Z,6.22
2018-03-08T00:02:55.779Z,6.25
2018-03-08T00:03:55.734Z,6.25
2018-03-08T00:04:55.682Z,6.17
2018-03-08T00:05:55.650Z,6.19
2018-03-08T00:06:55.594Z,6.22
2018-03-08T00:07:55.551Z,6.25
2018-03-08T00:08:55.497Z,6.20
2018-03-08T00:09:55.449Z,6.20
2018-03-08T00:10:55.403Z,6.25
2018-03-08T00:11:55.358Z,6.26
2018-03-08T00:12:55.351Z,6.22
2018-03-08T00:13:55.265Z,6.22
2018-03-08T00:14:55.215Z,6.25
2018-03-08T00:15:55.171Z,6.20
2018-03-08T00:16:55.124Z,6.28
2018-03-08T00:17:55.074Z,6.16
2018-03-08T00:18:55.028Z,6.25
2018-03-08T00:19:54.980Z,6.22
2018-03-08T00:20:54.932Z,6.26
2018-03-08T00:21:54.888Z,6.17
2018-03-08T00:22:54.840Z,6.25
2018-03-08T00:23:54.795Z,6.31
2018-03-08T00:24:54.746Z,6.20
2018-03-08T00:25:54.699Z,6.29
2018-03-08T00:26:54.660Z,6.26
2018-03-08T00:27:54.634Z,6.31
2018-03-08T00:28:54.557Z,6.22
2018-03-08T00:29:54.513Z,6.17
2018-03-08T00:30:54.464Z,6.16
2018-03-08T00:31:54.417Z,6.25
2018-03-08T00:32:54.372Z,6.25
2018-03-08T00:33:54.329Z,6.26
2018-03-08T00:34:54.285Z,6.22
2018-03-08T00:35:54.230Z,6.26
2018-03-08T00:36:54.183Z,6.19
2018-03-08T00:37:54.147Z,6.20
2018-03-08T00:38:54.091Z,6.25
2018-03-08T00:39:54.049Z,6.26
2018-03-08T00:40:53.999Z,6.31
2018-03-08T00:41:53.950Z,6.32
2018-03-08T00:42:53.902Z,6.28
2018-03-08T00:43:53.855Z,6.20
2018-03-08T00:44:53.809Z,6.29
2018-03-08T00:45:53.762Z,6.19
2018-03-08T00:46:53.715Z,6.19
2018-03-08T00:47:53.670Z,6.32
2018-03-08T00:48:53.620Z,6.25
2018-03-08T00:49:53.577Z,6.25
2018-03-08T00:50:53.534Z,6.28
2018-03-08T00:51:53.482Z,6.34
2018-03-08T00:52:53.434Z,6.28
2018-03-08T00:53:53.389Z,6.28
2018-03-08T00:54:53.343Z,6.29
2018-03-08T00:55:53.294Z,6.22
2018-03-08T00:56:53.246Z,6.28
2018-03-08T00:57:53.203Z,6.34
2018-03-08T00:58:53.154Z,6.29
2018-03-08T00:59:53.112Z,6.28
2018-03-08T01:00:53.058Z,6.28
2018-03-08T01:01:53.013Z,6.20
2018-03-08T01:02:52.971Z,6.29
2018-03-08T01:03:52.921Z,6.31
2018-03-08T01:04:52.876Z,6.32
2018-03-08T01:05:52.826Z,6.26
2018-03-08T01:06:52.781Z,6.32
2018-03-08T01:07:52.737Z,6.36
2018-03-08T01:08:52.687Z,6.29
2018-03-08T01:09:52.642Z,6.36
2018-03-08T01:10:52.594Z,6.34
2018-03-08T01:11:52.545Z,6.35
2018-03-08T01:12:52.499Z,6.22
2018-03-08T01:13:52.451Z,6.34
2018-03-08T01:14:52.405Z,6.34
2018-03-08T01:15:52.362Z,6.20
2018-03-08T01:16:52.311Z,6.35
2018-03-08T01:17:52.265Z,6.32
2018-03-08T01:18:52.218Z,6.35
2018-03-08T01:19:52.173Z,6.32
2018-03-08T01:20:52.125Z,6.28
2018-03-08T01:21:52.092Z,6.34
2018-03-08T01:22:52.030Z,6.31
2018-03-08T01:23:51.987Z,6.34
2018-03-08T01:24:51.938Z,6.34
2018-03-08T01:25:51.890Z,6.29
2018-03-08T01:26:51.896Z,6.28
2018-03-08T01:27:51.798Z,6.32
2018-03-08T01:28:51.749Z,6.32
2018-03-08T01:29:51.707Z,6.26
2018-03-08T01:30:51.659Z,6.31
2018-03-08T01:31:51.607Z,6.36
2018-03-08T01:32:51.566Z,6.35
2018-03-08T01:33:51.518Z,6.39
2018-03-08T01:34:51.469Z,6.32
2018-03-08T01:35:51.423Z,6.36
2018-03-08T01:36:51.376Z,6.34
2018-03-08T01:37:51.329Z,6.35
2018-03-08T01:38:51.286Z,6.38
2018-03-08T01:39:51.236Z,6.34
2018-03-08T01:40:51.187Z,6.35
2018-03-08T01:41:51.141Z,6.38
2018-03-08T01:42:51.093Z,6.32
2018-03-08T01:43:51.049Z,6.29
2018-03-08T01:44:51.003Z,6.29
2018-03-08T01:45:50.955Z,6.32
2018-03-08T01:46:50.905Z,6.31
2018-03-08T01:47:50.860Z,6.25
2018-03-08T01:48:50.811Z,6.35
2018-03-08T01:49:50.766Z,6.31
2018-03-08T01:50:50.718Z,6.35
2018-03-08T01:51:50.671Z,6.31
2018-03-08T01:52:50.624Z,6.31
2018-03-08T01:53:50.583Z,6.25
2018-03-08T01:54:50.531Z,6.26
2018-03-08T01:55:50.487Z,6.28
2018-03-08T01:56:50.454Z,6.29
2018-03-08T01:57:50.393Z,6.25
2018-03-08T01:58:50.343Z,6.28
2018-03-08T01:59:50.298Z,6.29
2018-03-08T02:00:50.251Z,6.22
2018-03-08T02:01:50.203Z,6.26
2018-03-08T02:02:50.159Z,6.29
2018-03-08T02:03:50.112Z,6.28
2018-03-08T02:04:50.060Z,6.26
2018-03-08T02:05:50.016Z,6.26
2018-03-08T02:06:49.976Z,6.25
2018-03-08T02:07:49.922Z,6.29
2018-03-08T02:08:49.874Z,6.25
2018-03-08T02:09:49.829Z,6.25
2018-03-08T02:10:49.781Z,6.32
2018-03-08T02:11:49.734Z,6.26
2018-03-08T02:12:49.688Z,6.26
2018-03-08T02:13:49.641Z,6.31
2018-03-08T02:14:49.595Z,6.26
2018-03-08T02:15:49.546Z,6.25
2018-03-08T02:16:49.500Z,6.32
2018-03-08T02:17:49.451Z,6.22
2018-03-08T02:18:49.409Z,6.25
2018-03-08T02:19:49.357Z,6.22
2018-03-08T02:20:49.313Z,6.25
2018-03-08T02:21:49.266Z,6.26
2018-03-08T02:22:49.220Z,6.31
2018-03-08T02:23:49.174Z,6.29
2018-03-08T02:24:49.129Z,6.26
2018-03-08T02:25:49.076Z,6.22
2018-03-08T02:26:49.030Z,6.26
2018-03-08T02:27:48.982Z,6.29
2018-03-08T02:28:48.936Z,6.29
2018-03-08T02:29:48.887Z,6.25
2018-03-08T02:30:48.845Z,6.31
2018-03-08T02:31:48.798Z,6.26
2018-03-08T02:32:48.749Z,6.22
2018-03-08T02:33:48.702Z,6.28
2018-03-08T02:34:48.655Z,6.26
2018-03-08T02:35:48.609Z,6.29
2018-03-08T02:36:48.560Z,6.25
2018-03-08T02:37:48.516Z,6.17
2018-03-08T02:38:48.474Z,6.25
2018-03-08T02:39:48.424Z,6.25
2018-03-08T02:40:48.372Z,6.26
2018-03-08T02:41:48.327Z,6.29
2018-03-08T02:42:48.280Z,6.28
2018-03-08T02:43:48.237Z,6.28
2018-03-08T02:44:48.187Z,6.22
2018-03-08T02:45:48.136Z,6.28
2018-03-08T02:46:48.092Z,6.25
2018-03-08T02:47:48.059Z,6.22
2018-03-08T02:48:47.997Z,6.20
2018-03-08T02:49:47.955Z,6.19
2018-03-08T02:50:47.908Z,6.22
2018-03-08T02:51:47.857Z,6.19
2018-03-08T02:52:47.810Z,6.28
2018-03-08T02:53:47.773Z,6.22
2018-03-08T02:54:47.715Z,6.15
2018-03-08T02:55:47.673Z,6.10
2018-03-08T02:56:47.625Z,6.09
2018-03-08T02:57:47.575Z,6.22
2018-03-08T02:58:47.527Z,6.17
2018-03-08T02:59:47.481Z,6.19
2018-03-08T03:00:47.435Z,6.19
2018-03-08T03:01:47.388Z,6.09
2018-03-08T03:02:47.341Z,6.12
2018-03-08T03:03:47.296Z,6.15
2018-03-08T03:04:47.252Z,6.06
2018-03-08T03:05:47.201Z,6.09
2018-03-08T03:06:47.153Z,6.09
2018-03-08T03:07:47.108Z,6.10
2018-03-08T03:08:47.058Z,6.06
2018-03-08T03:09:47.019Z,6.09
2018-03-08T03:10:46.965Z,6.12
2018-03-08T03:11:46.918Z,6.09
2018-03-08T03:12:46.878Z,6.09
2018-03-08T03:13:46.829Z,6.13
2018-03-08T03:14:46.781Z,6.09
2018-03-08T03:15:46.732Z,6.06
2018-03-08T03:16:46.682Z,6.07
2018-03-08T03:17:46.636Z,6.09
2018-03-08T03:18:46.591Z,6.05
2018-03-08T03:19:46.541Z,5.99
2018-03-08T03:20:46.496Z,6.02
2018-03-08T03:21:46.448Z,5.97
2018-03-08T03:22:46.405Z,5.98
2018-03-08T03:23:46.360Z,5.99
2018-03-08T03:24:46.310Z,5.94
2018-03-08T03:25:46.265Z,5.94
2018-03-08T03:26:46.215Z,6.01
2018-03-08T03:27:46.166Z,6.06
2018-03-08T03:28:46.123Z,5.99
2018-03-08T03:29:46.080Z,6.01
2018-03-08T03:30:46.030Z,6.05
2018-03-08T03:31:45.980Z,5.98
2018-03-08T03:32:45.934Z,6.01
2018-03-08T03:33:45.882Z,6.07
2018-03-08T03:34:45.838Z,6.06
2018-03-08T03:35:45.790Z,5.99
2018-03-08T03:36:45.745Z,5.97
2018-03-08T03:37:45.699Z,5.97
2018-03-08T03:38:45.653Z,5.94
2018-03-08T03:39:45.603Z,5.97
2018-03-08T03:40:45.554Z,5.91
2018-03-08T03:41:45.509Z,5.91
2018-03-08T03:42:45.461Z,5.92
2018-03-08T03:43:45.424Z,5.92
2018-03-08T03:44:45.368Z,5.91
2018-03-08T03:45:45.321Z,5.84
2018-03-08T03:46:45.275Z,5.87
2018-03-08T03:47:45.228Z,5.88
2018-03-08T03:48:45.181Z,5.84
2018-03-08T03:49:45.132Z,5.88
2018-03-08T03:50:45.089Z,5.87
2018-03-08T03:51:45.041Z,5.81
2018-03-08T03:52:44.991Z,5.83
2018-03-08T03:53:44.948Z,5.84
2018-03-08T03:54:44.897Z,5.81
2018-03-08T03:55:44.850Z,5.83
2018-03-08T03:56:44.804Z,5.87
2018-03-08T03:57:44.754Z,5.80
2018-03-08T03:58:44.722Z,5.76
2018-03-08T03:59:44.666Z,5.79
2018-03-08T04:00:44.622Z,5.79
2018-03-08T04:01:44.569Z,5.72
2018-03-08T04:02:44.524Z,5.74
2018-03-08T04:03:44.473Z,5.69
2018-03-08T04:04:44.436Z,5.67
2018-03-08T04:05:44.380Z,5.70
2018-03-08T04:06:44.338Z,5.69
2018-03-08T04:07:44.294Z,5.72
2018-03-08T04:08:44.238Z,5.62
2018-03-08T04:09:44.193Z,5.69
2018-03-08T04:10:44.145Z,5.61
2018-03-08T04:11:44.096Z,5.61
2018-03-08T04:12:44.047Z,5.61
2018-03-08T04:13:44.002Z,5.62
2018-03-08T04:14:43.955Z,5.61
2018-03-08T04:15:43.908Z,5.62
2018-03-08T04:16:43.862Z,5.56
2018-03-08T04:17:43.817Z,5.54
2018-03-08T04:18:43.768Z,5.58
2018-03-08T04:19:43.723Z,5.49
2018-03-08T04:20:43.672Z,5.51
2018-03-08T04:21:43.628Z,5.44
2018-03-08T04:22:43.581Z,5.36
2018-03-08T04:23:43.533Z,5.43
2018-03-08T04:24:43.483Z,5.40
2018-03-08T04:25:43.439Z,5.40
2018-03-08T04:26:43.391Z,5.36
2018-03-08T04:27:43.341Z,5.29
2018-03-08T04:28:43.295Z,5.34
2018-03-08T04:29:43.247Z,5.33
2018-03-08T04:30:43.203Z,5.28
2018-03-08T04:31:43.155Z,5.25
2018-03-08T04:32:43.107Z,5.23
2018-03-08T04:33:43.059Z,5.16
2018-03-08T04:34:43.011Z,5.22
2018-03-08T04:35:42.967Z,5.15
2018-03-08T04:36:42.916Z,5.16
2018-03-08T04:37:42.869Z,5.01
2018-03-08T04:38:42.825Z,5.10
2018-03-08T04:39:42.778Z,5.02
2018-03-08T04:40:42.727Z,5.00
2018-03-08T04:41:42.681Z,5.00
2018-03-08T04:42:42.634Z,4.90
2018-03-08T04:43:42.592Z,4.95
2018-03-08T04:44:42.536Z,4.89
2018-03-08T04:45:42.493Z,4.84
2018-03-08T04:46:42.445Z,4.92
2018-03-08T04:47:42.398Z,4.75
2018-03-08T04:48:42.347Z,4.89
2018-03-08T04:49:42.302Z,4.90
2018-03-08T04:50:42.256Z,4.87
2018-03-08T04:51:42.207Z,4.86
2018-03-08T04:52:42.158Z,4.86
2018-03-08T04:53:42.110Z,4.76
2018-03-08T04:54:42.070Z,4.68
2018-03-08T04:55:42.014Z,4.66
2018-03-08T04:56:41.972Z,4.66
2018-03-08T04:57:41.919Z,4.66
2018-03-08T04:58:41.874Z,4.68
2018-03-08T04:59:41.828Z,4.60
2018-03-08T05:00:41.786Z,4.57
2018-03-08T05:01:41.736Z,4.56
2018-03-08T05:02:41.683Z,4.52
2018-03-08T05:03:41.636Z,4.57
2018-03-08T05:04:41.587Z,4.52
2018-03-08T05:05:41.541Z,4.53
2018-03-08T05:06:41.495Z,4.46
2018-03-08T05:07:41.449Z,4.45
2018-03-08T05:08:41.397Z,4.43
2018-03-08T05:09:41.349Z,4.45
2018-03-08T05:10:41.304Z,4.40
2018-03-08T05:11:41.256Z,4.45
2018-03-08T05:12:41.207Z,4.42
2018-03-08T05:13:41.162Z,4.38
2018-03-08T05:14:41.118Z,4.32
2018-03-08T05:15:41.062Z,4.31
2018-03-08T05:16:41.014Z,4.32
2018-03-08T05:17:41.000Z,4.38
2018-03-08T05:18:40.925Z,4.25
2018-03-08T05:19:40.877Z,4.27
2018-03-08T05:20:40.824Z,4.16
2018-03-08T05:21:40.780Z,4.22
2018-03-08T05:22:40.728Z,4.18
2018-03-08T05:23:40.680Z,4.27
2018-03-08T05:24:40.632Z,4.22
2018-03-08T05:25:40.586Z,4.24
2018-03-08T05:26:40.539Z,4.13
2018-03-08T05:27:40.493Z,4.13
2018-03-08T05:28:40.446Z,4.10
2018-03-08T05:29:40.394Z,4.12
2018-03-08T05:30:40.343Z,4.13
2018-03-08T05:31:40.298Z,4.10
2018-03-08T05:32:40.251Z,4.09
2018-03-08T05:33:40.201Z,4.13
2018-03-08T05:34:40.153Z,4.12
2018-03-08T05:35:40.105Z,4.10
2018-03-08T05:36:40.059Z,4.12
2018-03-08T05:37:40.008Z,4.13
2018-03-08T05:38:39.969Z,4.12
2018-03-08T05:39:39.920Z,4.07
2018-03-08T05:40:39.868Z,3.91
2018-03-08T05:41:39.816Z,3.91
2018-03-08T05:42:39.768Z,4.04
2018-03-08T05:43:39.725Z,4.06
2018-03-08T05:44:39.677Z,3.94
2018-03-08T05:45:39.623Z,3.89
2018-03-08T05:46:39.581Z,4.06
2018-03-08T05:47:39.527Z,3.89
2018-03-08T05:48:39.523Z,3.92
2018-03-08T05:49:39.430Z,3.91
2018-03-08T05:50:39.383Z,3.95
2018-03-08T05:51:39.334Z,3.89
2018-03-08T05:52:39.286Z,4.03
2018-03-08T05:53:39.241Z,3.89
2018-03-08T05:54:39.224Z,3.86
2018-03-08T05:55:39.145Z,3.89
2018-03-08T05:56:39.094Z,3.95
2018-03-08T05:57:39.046Z,3.96
2018-03-08T05:58:39.004Z,3.86
2018-03-08T05:59:38.952Z,3.95
2018-03-08T06:00:38.901Z,3.96
2018-03-08T06:01:38.854Z,4.00
2018-03-08T06:02:38.807Z,4.04
2018-03-08T06:03:38.761Z,3.96
2018-03-08T06:04:38.710Z,3.91
2018-03-08T06:05:38.662Z,4.02
2018-03-08T06:06:38.614Z,3.99
2018-03-08T06:07:38.570Z,3.94
2018-03-08T06:08:38.517Z,3.95
2018-03-08T06:09:38.469Z,4.02
2018-03-08T06:10:38.420Z,4.07
2018-03-08T06:11:38.373Z,4.02
2018-03-08T06:12:38.325Z,4.06
2018-03-08T06:13:38.276Z,4.04
2018-03-08T06:14:38.230Z,4.07
2018-03-08T06:15:38.179Z,4.07
2018-03-08T06:16:38.137Z,4.10
2018-03-08T06:17:38.087Z,4.12
2018-03-08T06:18:38.036Z,4.06
2018-03-08T06:19:37.988Z,4.10
2018-03-08T06:20:37.974Z,4.03
2018-03-08T06:21:37.893Z,4.18
2018-03-08T06:22:37.848Z,4.10
2018-03-08T06:23:37.794Z,4.10
2018-03-08T06:24:37.747Z,4.03
2018-03-08T06:25:37.701Z,4.06
2018-03-08T06:26:37.654Z,4.03
2018-03-08T06:27:37.607Z,4.04
2018-03-08T06:28:37.558Z,4.03
2018-03-08T06:29:37.509Z,4.09
2018-03-08T06:30:37.457Z,4.14
2018-03-08T06:31:37.415Z,4.10
2018-03-08T06:32:37.366Z,4.18
2018-03-08T06:33:37.314Z,4.22
2018-03-08T06:34:37.269Z,4.22
2018-03-08T06:35:37.222Z,4.21
2018-03-08T06:36:37.172Z,4.21
2018-03-08T06:37:37.128Z,4.20
2018-03-08T06:38:37.081Z,4.16
2018-03-08T06:39:37.033Z,4.31
2018-03-08T06:40:36.991Z,4.21
2018-03-08T06:41:36.933Z,4.25
2018-03-08T06:42:36.884Z,4.32
2018-03-08T06:43:36.843Z,4.28
2018-03-08T06:44:36.790Z,4.31
2018-03-08T06:45:36.739Z,4.31
2018-03-08T06:46:36.690Z,4.38
2018-03-08T06:47:36.649Z,4.40
2018-03-08T06:48:36.595Z,4.38
2018-03-08T06:49:36.545Z,4.42
2018-03-08T06:50:36.497Z,4.43
2018-03-08T06:51:36.451Z,4.42
2018-03-08T06:52:36.401Z,4.45
2018-03-08T06:53:36.354Z,4.48
2018-03-08T06:54:36.308Z,4.50
2018-03-08T06:55:36.261Z,4.57
2018-03-08T06:56:36.209Z,4.50
2018-03-08T06:57:36.160Z,4.63
2018-03-08T06:58:36.120Z,4.53
2018-03-08T06:59:36.065Z,4.66
2018-03-08T07:00:36.017Z,4.67
2018-03-08T07:01:35.967Z,4.75
2018-03-08T07:02:35.921Z,4.82
2018-03-08T07:03:35.876Z,4.86
2018-03-08T07:04:35.823Z,4.92
2018-03-08T07:05:35.777Z,4.84
2018-03-08T07:06:35.729Z,4.94
2018-03-08T07:07:35.685Z,5.05
2018-03-08T07:08:35.633Z,5.12
2018-03-08T07:09:35.588Z,5.00
2018-03-08T07:10:35.536Z,5.13
2018-03-08T07:11:35.493Z,5.20
2018-03-08T07:12:35.443Z,5.28
2018-03-08T07:13:35.396Z,5.33
2018-03-08T07:14:35.347Z,5.28
2018-03-08T07:15:35.307Z,5.41
2018-03-08T07:16:35.252Z,5.54
2018-03-08T07:17:35.207Z,5.58
2018-03-08T07:18:35.158Z,5.58
2018-03-08T07:19:35.115Z,5.73
2018-03-08T07:20:35.065Z,5.73
2018-03-08T07:21:35.015Z,5.76
2018-03-08T07:22:34.966Z,5.84
2018-03-08T07:23:34.920Z,5.87
2018-03-08T07:24:34.875Z,5.88
2018-03-08T07:25:34.828Z,5.99
2018-03-08T07:26:34.779Z,6.09
2018-03-08T07:27:34.733Z,6.13
2018-03-08T07:28:34.693Z,6.22
2018-03-08T07:29:34.636Z,6.26
2018-03-08T07:30:34.591Z,6.31
2018-03-08T07:31:34.543Z,6.41
2018-03-08T07:32:34.493Z,6.39
2018-03-08T07:33:34.448Z,6.52
2018-03-08T07:34:34.401Z,6.56
2018-03-08T07:35:34.354Z,6.59
2018-03-08T07:36:34.346Z,6.78
2018-03-08T07:37:34.263Z,6.72
2018-03-08T07:38:34.214Z,6.87
2018-03-08T07:39:34.169Z,6.96
2018-03-08T07:40:34.120Z,7.01
2018-03-08T07:41:34.074Z,7.26
2018-03-08T07:42:34.027Z,7.33
2018-03-08T07:43:33.983Z,7.53
2018-03-08T07:44:33.934Z,7.77
2018-03-08T07:45:33.888Z,8.08
2018-03-08T07:46:33.843Z,8.57
2018-03-08T07:47:33.801Z,9.02
2018-03-08T07:48:33.755Z,9.51
2018-03-08T07:49:33.709Z,9.85
2018-03-08T07:50:33.662Z,10.24
2018-03-08T07:51:33.618Z,10.75
2018-03-08T07:52:33.572Z,11.20
2018-03-08T07:53:33.530Z,11.65
2018-03-08T07:54:33.484Z,11.93
2018-03-08T07:55:33.442Z,12.20
2018-03-08T07:56:33.397Z,12.44
2018-03-08T07:57:33.353Z,12.66
2018-03-08T07:58:33.313Z,12.65
2018-03-08T07:59:33.268Z,12.65
2018-03-08T08:00:33.224Z,12.91
2018-03-08T08:01:33.183Z,13.13
2018-03-08T08:02:33.140Z,13.30
2018-03-08T08:03:33.102Z,13.36
2018-03-08T08:04:33.055Z,13.42
2018-03-08T08:05:33.010Z,13.47
2018-03-08T08:06:32.970Z,13.82
2018-03-08T08:07:32.925Z,13.79
2018-03-08T08:08:32.884Z,14.11
2018-03-08T08:09:32.843Z,13.85
2018-03-08T08:10:32.818Z,14.20
2018-03-08T08:11:32.761Z,14.53
2018-03-08T08:12:32.716Z,14.34
2018-03-08T08:13:32.676Z,13.50
2018-03-08T08:14:32.634Z,13.60
2018-03-08T08:15:32.592Z,13.37
2018-03-08T08:16:32.555Z,12.88
2018-03-08T08:17:32.509Z,12.35
2018-03-08T08:18:32.476Z,11.89
2018-03-08T08:19:32.425Z,11.48
2018-03-08T08:20:32.382Z,11.27
2018-03-08T08:21:32.342Z,11.35
2018-03-08T08:22:32.304Z,11.45
2018-03-08T08:23:32.261Z,11.73
2018-03-08T08:24:32.214Z,12.12
2018-03-08T08:25:32.174Z,12.72
2018-03-08T08:26:32.130Z,13.20
2018-03-08T08:27:32.088Z,13.37
2018-03-08T08:28:32.051Z,13.85
2018-03-08T08:29:32.003Z,14.08
2018-03-08T08:30:31.961Z,14.45
2018-03-08T08:31:31.919Z,14.53
2018-03-08T08:32:31.876Z,14.78
2018-03-08T08:33:31.838Z,14.81
2018-03-08T08:34:31.797Z,15.04
2018-03-08T08:35:31.753Z,15.18
2018-03-08T08:36:31.712Z,15.25
2018-03-08T08:37:31.674Z,15.07
2018-03-08T08:38:31.633Z,15.07
2018-03-08T08:39:31.589Z,15.10
2018-03-08T08:40:31.599Z,15.02
2018-03-08T08:41:31.510Z,15.26
2018-03-08T08:42:31.469Z,14.85
2018-03-08T08:43:31.429Z,13.95
2018-03-08T08:44:31.386Z,13.42
2018-03-08T08:45:31.349Z,13.13
2018-03-08T08:46:31.308Z,12.91
2018-03-08T08:47:31.265Z,12.62
2018-03-08T08:48:31.221Z,12.26
2018-03-08T08:49:31.187Z,11.95
2018-03-08T08:50:31.143Z,11.83
2018-03-08T08:51:31.097Z,11.49
2018-03-08T08:52:31.057Z,11.22
2018-03-08T08:53:31.015Z,11.07
2018-03-08T08:54:31.006Z,10.80
2018-03-08T08:55:30.931Z,10.55
2018-03-08T08:56:30.887Z,10.34
2018-03-08T08:57:30.845Z,10.23
2018-03-08T08:58:30.802Z,10.09
2018-03-08T08:59:30.759Z,9.99
2018-03-08T09:00:30.715Z,10.02
2018-03-08T09:01:30.672Z,10.23
2018-03-08T09:02:30.628Z,10.31
2018-03-08T09:03:30.585Z,10.24
2018-03-08T09:04:30.545Z,10.13
2018-03-08T09:05:30.499Z,10.20
2018-03-08T09:06:30.454Z,10.18
2018-03-08T09:07:30.439Z,10.12
2018-03-08T09:08:30.366Z,10.30
2018-03-08T09:09:30.322Z,10.34
2018-03-08T09:10:30.280Z,10.34
2018-03-08T09:11:30.235Z,10.53
2018-03-08T09:12:30.194Z,11.07
2018-03-08T09:13:30.148Z,11.13
2018-03-08T09:14:30.108Z,10.86
2018-03-08T09:15:30.061Z,10.83
2018-03-08T09:16:30.016Z,10.64
2018-03-08T09:17:29.976Z,10.51
2018-03-08T09:18:29.939Z,10.45
2018-03-08T09:19:29.889Z,10.23
2018-03-08T09:20:29.841Z,10.20
2018-03-08T09:21:29.801Z,10.15
2018-03-08T09:22:29.757Z,10.15
2018-03-08T09:23:29.715Z,10.12
2018-03-08T09:24:29.666Z,10.15
2018-03-08T09:25:29.623Z,10.07
2018-03-08T09:26:29.579Z,10.02
2018-03-08T09:27:29.537Z,9.99
2018-03-08T09:28:29.491Z,10.00
2018-03-08T09:29:29.449Z,9.82
2018-03-08T09:30:29.407Z,9.82
2018-03-08T09:31:29.359Z,9.76
2018-03-08T09:32:29.314Z,9.70
2018-03-08T09:33:29.270Z,9.63
2018-03-08T09:34:29.228Z,9.64
2018-03-08T09:35:29.185Z,9.56
2018-03-08T09:36:29.140Z,9.52
2018-03-08T09:37:29.092Z,9.56
2018-03-08T09:38:29.051Z,9.73
2018-03-08T09:39:29.004Z,9.74
2018-03-08T09:40:28.959Z,9.84
2018-03-08T09:41:28.914Z,10.18
2018-03-08T09:42:28.873Z,10.45
2018-03-08T09:43:28.829Z,10.53
2018-03-08T09:44:28.781Z,10.64
2018-03-08T09:45:28.737Z,10.58
2018-03-08T09:46:28.695Z,10.62
2018-03-08T09:47:28.651Z,10.61
2018-03-08T09:48:28.607Z,10.51
2018-03-08T09:49:28.564Z,10.48
2018-03-08T09:50:28.520Z,10.41
2018-03-08T09:51:28.478Z,10.34
2018-03-08T09:52:28.431Z,10.34
2018-03-08T09:53:28.388Z,10.39
2018-03-08T09:54:28.343Z,10.34
2018-03-08T09:55:28.300Z,10.45
2018-03-08T09:56:28.254Z,10.36
2018-03-08T09:57:28.210Z,10.42
2018-03-08T09:58:28.165Z,10.41
2018-03-08T09:59:28.123Z,10.53
2018-03-08T10:00:28.077Z,10.46
2018-03-08T10:01:28.035Z,10.65
2018-03-08T10:02:27.995Z,10.82
2018-03-08T10:03:27.956Z,11.00
2018-03-08T10:04:27.900Z,11.07
2018-03-08T10:05:27.858Z,11.15
2018-03-08T10:06:27.819Z,11.15
2018-03-08T10:07:27.771Z,11.26
2018-03-08T10:08:27.727Z,11.20
2018-03-08T10:09:27.734Z,11.20
2018-03-08T10:10:27.639Z,11.26
2018-03-08T10:11:27.596Z,11.26
2018-03-08T10:12:27.555Z,11.44
2018-03-08T10:13:27.512Z,11.41
2018-03-08T10:14:27.470Z,11.44
2018-03-08T10:15:27.422Z,11.48
2018-03-08T10:16:27.377Z,11.45
2018-03-08T10:17:27.332Z,11.34
2018-03-08T10:18:27.291Z,11.30
2018-03-08T10:19:27.248Z,11.26
2018-03-08T10:20:27.208Z,11.05
2018-03-08T10:21:44.375Z,11.01
2018-03-08T10:22:27.113Z,11.05
2018-03-08T10:23:27.077Z,10.98
2018-03-08T10:24:27.027Z,10.90
2018-03-08T10:25:26.984Z,10.86
2018-03-08T10:26:26.940Z,10.80
2018-03-08T10:27:26.898Z,10.62
2018-03-08T10:28:26.851Z,10.62
2018-03-08T10:29:26.806Z,10.49
2018-03-08T10:30:26.768Z,10.48
2018-03-08T10:31:26.719Z,10.46
2018-03-08T10:32:26.675Z,10.39
2018-03-08T10:33:26.633Z,10.38
2018-03-08T10:34:26.586Z,10.24
2018-03-08T10:35:26.541Z,10.27
2018-03-08T10:36:26.499Z,10.24
2018-03-08T10:37:26.455Z,10.28
2018-03-08T10:38:26.411Z,10.24
2018-03-08T10:43:26.246Z,10.15
2018-03-08T10:44:26.142Z,10.20
2018-03-08T10:45:26.098Z,10.24
2018-03-08T10:46:26.058Z,10.27
2018-03-08T10:47:26.009Z,10.39
2018-03-08T10:48:25.965Z,10.36
2018-03-08T10:49:25.920Z,10.39
2018-03-08T10:50:25.920Z,10.45
2018-03-08T10:51:25.831Z,10.49
2018-03-08T10:52:25.784Z,10.55
2018-03-08T10:53:25.741Z,10.53
2018-03-08T10:54:25.698Z,10.61
2018-03-08T10:55:25.652Z,10.61
2018-03-08T10:56:25.607Z,10.64
2018-03-08T10:57:25.564Z,10.71
2018-03-08T10:58:25.522Z,10.75
2018-03-08T10:59:25.477Z,10.80
2018-03-08T11:00:25.430Z,10.87
2018-03-08T11:01:25.386Z,10.90
2018-03-08T11:02:25.344Z,11.00
2018-03-08T11:03:25.299Z,11.10
2018-03-08T11:04:26.549Z,11.16
2018-03-08T11:05:25.212Z,11.18
2018-03-08T11:06:25.211Z,11.27
2018-03-08T11:07:25.121Z,11.23
2018-03-08T11:08:25.118Z,11.40
2018-03-08T11:09:25.034Z,11.41
2018-03-08T11:10:24.987Z,11.49
2018-03-08T11:11:24.996Z,11.43
2018-03-08T11:12:24.908Z,11.60
2018-03-08T11:13:24.855Z,11.49
2018-03-08T11:14:24.816Z,11.63
2018-03-08T11:15:24.770Z,11.60
2018-03-08T11:16:24.734Z,11.48
2018-03-08T11:17:24.682Z,11.55
2018-03-08T11:18:24.637Z,11.43
2018-03-08T11:19:24.592Z,11.44
2018-03-08T11:20:24.551Z,11.48
2018-03-08T11:21:24.509Z,11.43
2018-03-08T11:22:24.460Z,11.40
2018-03-08T11:23:24.417Z,11.34
2018-03-08T11:24:24.371Z,11.22
2018-03-08T11:25:24.327Z,11.22
2018-03-08T11:26:24.284Z,11.10
2018-03-08T11:27:24.241Z,10.97
2018-03-08T11:28:24.196Z,10.97
2018-03-08T11:29:24.152Z,10.92
2018-03-08T11:30:24.160Z,10.84
2018-03-08T11:31:24.065Z,10.84
2018-03-08T11:32:24.022Z,10.82
2018-03-08T11:33:23.977Z,10.90
2018-03-08T11:34:23.933Z,10.90
2018-03-08T11:35:23.887Z,10.89
2018-03-08T11:36:23.844Z,10.83
2018-03-08T11:37:23.800Z,10.69
2018-03-08T11:38:23.757Z,10.79
2018-03-08T11:39:23.713Z,10.68
2018-03-08T11:40:23.665Z,10.68
2018-03-08T11:41:23.623Z,10.59
2018-03-08T11:42:23.582Z,10.64
2018-03-08T11:43:23.883Z,10.64
2018-03-08T11:44:23.519Z,10.58
2018-03-08T11:45:23.448Z,10.61
2018-03-08T11:46:23.405Z,10.51
2018-03-08T11:47:24.672Z,10.48
2018-03-08T11:48:23.312Z,10.43
2018-03-08T11:49:23.270Z,10.43
2018-03-08T11:50:23.224Z,10.39
2018-03-08T11:51:23.181Z,10.34
2018-03-08T11:52:23.143Z,10.38
2018-03-08T11:53:23.092Z,10.33
2018-03-08T11:54:23.049Z,10.31
2018-03-08T11:55:23.005Z,10.30
2018-03-08T11:56:22.961Z,10.24
2018-03-08T11:57:22.915Z,10.23
2018-03-08T11:58:22.870Z,10.23
2018-03-08T11:59:22.828Z,10.27
2018-03-08T12:00:22.777Z,10.21
2018-03-08T12:01:22.733Z,10.21
2018-03-08T12:02:22.689Z,10.24
2018-03-08T12:03:22.649Z,10.25
2018-03-08T12:04:22.599Z,10.28
2018-03-08T12:05:22.555Z,10.21
2018-03-08T12:06:22.513Z,10.23
2018-03-08T12:07:22.468Z,10.17
2018-03-08T12:08:22.428Z,10.15
2018-03-08T12:09:22.376Z,10.20
2018-03-08T12:10:22.336Z,10.17
2018-03-08T12:11:22.289Z,10.15
2018-03-08T12:12:22.241Z,10.00
2018-03-08T12:13:22.200Z,10.03
2018-03-08T12:14:22.156Z,9.97
2018-03-08T12:15:22.114Z,9.94
2018-03-08T12:16:22.062Z,9.95
2018-03-08T12:17:22.018Z,9.94
2018-03-08T12:18:21.982Z,9.88
2018-03-08T12:20:21.883Z,9.87
2018-03-08T12:21:21.839Z,9.80
2018-03-08T12:22:21.798Z,9.74
2018-03-08T12:23:21.757Z,9.69
2018-03-08T12:24:21.704Z,9.62
2018-03-08T12:25:21.661Z,9.62
2018-03-08T12:26:21.617Z,9.58
2018-03-08T12:27:21.583Z,9.56
2018-03-08T12:28:21.526Z,9.52
2018-03-08T12:29:21.480Z,9.49
2018-03-08T12:30:21.435Z,9.45
2018-03-08T12:31:21.392Z,9.51
2018-03-08T12:32:21.345Z,9.49
2018-03-08T12:33:21.310Z,9.44
2018-03-08T12:34:21.263Z,9.45
2018-03-08T12:35:21.209Z,9.39
2018-03-08T12:36:21.164Z,9.31
2018-03-08T12:37:21.120Z,9.36
2018-03-08T12:38:21.079Z,9.39
2018-03-08T12:39:21.033Z,9.39
2018-03-08T12:40:20.982Z,9.42
2018-03-08T12:41:20.940Z,9.34
2018-03-08T12:42:20.894Z,9.45
2018-03-08T12:43:20.850Z,9.40
2018-03-08T12:44:20.803Z,9.27
2018-03-08T12:45:20.766Z,9.22
2018-03-08T12:46:20.713Z,9.27
2018-03-08T12:47:20.668Z,9.24
2018-03-08T12:48:20.624Z,9.22
2018-03-08T12:49:20.577Z,9.21
2018-03-08T12:50:20.533Z,9.19
2018-03-08T12:51:20.496Z,9.19
2018-03-08T12:52:20.452Z,9.15
2018-03-08T12:53:20.400Z,9.19
2018-03-08T12:54:20.354Z,9.18
2018-03-08T12:55:20.312Z,9.09
2018-03-08T12:56:20.262Z,9.19
2018-03-08T12:57:20.247Z,9.15
2018-03-08T12:58:20.183Z,9.15
2018-03-08T12:59:20.146Z,9.12
2018-03-08T13:00:20.083Z,8.99
2018-03-08T13:01:20.036Z,8.99
2018-03-08T13:02:19.998Z,9.11
2018-03-08T13:03:19.949Z,8.97
2018-03-08T13:04:19.907Z,8.93
2018-03-08T13:05:19.861Z,9.00
2018-03-08T13:06:19.815Z,9.00
2018-03-08T13:07:19.769Z,8.84
2018-03-08T13:08:19.720Z,8.84
2018-03-08T13:09:19.676Z,8.93
2018-03-08T13:10:19.633Z,8.79
2018-03-08T13:11:19.589Z,8.86
2018-03-08T13:12:19.541Z,8.92
2018-03-08T13:13:19.495Z,8.75
2018-03-08T13:14:19.455Z,8.77
2018-03-08T13:15:19.424Z,8.74